Terminal Aerodrome Forecast
Issued by NWS

Home | Current Version | Previous Version | Graphics & Text | Print | Product List | Glossary On
Versions: 1 2 3 4 5 6 7 8 9 10 11 12 13 14 15 16 17 18 19 20 21 22 23
000
FTUS43 KABR 260800 AAB
TAFATY
TAF AMD
KATY 260858Z 2609/2706 03017G25KT 2SM -SN BLSN OVC020
     FM261300 35018G29KT 6SM -SN OVC015
     FM261800 34014G25KT P6SM OVC025=

USA.gov is the U.S. government's official web portal to all federal, state and local government web resources and services.